Time;durP1;ratioP1;P1;durP2;ratioP2;P2;SDS_P1;SDS_P2;PMS_P1;PMS_P2;Temp;Humidity;BMP_temperature;BMP_pressure;BME280_temperature;BME280_humidity;BME280_pressure;Samples;Min_cycle;Max_cycle;Signal;HPM_P1;HPM_P2
2022/10/26 00:01:48;;;;;;;0.00;0.00;;;;;;;;;;5095923;28;20415;-86
2022/10/26 00:04:14;;;;;;;0.95;0.85;;;;;;;;;;5095243;28;20020;-86
2022/10/26 00:06:40;;;;;;;0.00;0.00;;;;;;;;;;5096720;28;20030;-87
2022/10/26 00:09:07;;;;;;;0.40;0.40;;;;;;;;;;5096502;28;20024;-87
2022/10/26 00:11:33;;;;;;;0.10;0.10;;;;;;;;;;5096241;28;20048;-85
2022/10/26 00:13:59;;;;;;;0.00;0.00;;;;;;;;;;5096480;28;20065;-87
2022/10/26 00:16:27;;;;;;;0.00;0.00;;;;;;;;;;5096717;28;20128;-86
2022/10/26 00:18:56;;;;;;;0.85;0.85;;;;;;;;;;5096302;28;20032;-85
2022/10/26 00:21:22;;;;;;;1.17;0.90;;;;;;;;;;5096095;28;20069;-86
2022/10/26 00:23:49;;;;;;;3.70;3.50;;;;;;;;;;5096134;28;20039;-88
2022/10/26 00:26:15;;;;;;;1.10;1.10;;;;;;;;;;5104446;28;20031;-80
2022/10/26 00:28:41;;;;;;;1.25;1.17;;;;;;;;;;5102188;28;20024;-87
2022/10/26 00:31:11;;;;;;;1.52;1.48;;;;;;;;;;5095182;28;20214;-87
2022/10/26 00:33:37;;;;;;;0.00;0.00;;;;;;;;;;5094353;28;20407;-83
2022/10/26 00:36:04;;;;;;;0.00;0.00;;;;;;;;;;5095476;28;20081;-87
2022/10/26 00:38:30;;;;;;;0.00;0.00;;;;;;;;;;5094342;28;20055;-86
2022/10/26 00:40:57;;;;;;;0.47;0.47;;;;;;;;;;5094724;28;20521;-87
2022/10/26 00:43:23;;;;;;;0.00;0.00;;;;;;;;;;5095586;28;20387;-85
2022/10/26 00:45:51;;;;;;;0.00;0.00;;;;;;;;;;5094372;28;20024;-86
2022/10/26 00:48:25;;;;;;;2.53;2.33;;;;;;;;;;5091125;28;20020;-86
2022/10/26 00:50:52;;;;;;;0.00;0.00;;;;;;;;;;5097778;28;20027;-84
2022/10/26 00:53:19;;;;;;;0.00;0.00;;;;;;;;;;5102423;28;20044;-86
2022/10/26 00:55:47;;;;;;;0.00;0.00;;;;;;;;;;5102095;28;20023;-86
2022/10/26 00:58:14;;;;;;;0.00;0.00;;;;;;;;;;5100887;28;20027;-88
2022/10/26 01:00:42;;;;;;;0.00;0.00;;;;;;;;;;5102586;28;20079;-85
2022/10/26 01:03:09;;;;;;;0.38;0.38;;;;;;;;;;5102357;28;20127;-87
2022/10/26 01:05:37;;;;;;;4.03;0.75;;;;;;;;;;5086884;28;20031;-87
2022/10/26 01:08:03;;;;;;;0.22;0.22;;;;;;;;;;5098120;28;20020;-89
2022/10/26 01:10:30;;;;;;;0.32;0.32;;;;;;;;;;5099350;28;20062;-86
2022/10/26 01:12:57;;;;;;;0.00;0.00;;;;;;;;;;5107457;28;20059;-86
2022/10/26 01:15:27;;;;;;;0.00;0.00;;;;;;;;;;5098142;28;20019;-86
2022/10/26 01:17:53;;;;;;;0.00;0.00;;;;;;;;;;5105617;28;20058;-84
2022/10/26 01:20:38;;;;;;;0.00;0.00;;;;;;;;;;5120093;28;20043;-87
2022/10/26 01:23:15;;;;;;;0.17;0.10;;;;;;;;;;5099885;28;20047;-83
2022/10/26 01:25:41;;;;;;;0.00;0.00;;;;;;;;;;5100485;28;20012;-86
2022/10/26 01:28:19;;;;;;;0.00;0.00;;;;;;;;;;5096180;28;20031;-85
2022/10/26 01:30:47;;;;;;;0.00;0.00;;;;;;;;;;5114322;28;20372;-85
2022/10/26 01:33:14;;;;;;;0.00;0.00;;;;;;;;;;5096614;28;20101;-86
2022/10/26 01:35:58;;;;;;;0.00;0.00;;;;;;;;;;5094780;28;20032;-86
2022/10/26 01:38:43;;;;;;;0.00;0.00;;;;;;;;;;5105938;28;20039;-87
2022/10/26 01:41:19;;;;;;;0.55;0.55;;;;;;;;;;5091927;28;20111;-87
2022/10/26 01:44:05;;;;;;;0.20;0.20;;;;;;;;;;5089753;28;20590;-86
2022/10/26 01:46:34;;;;;;;0.00;0.00;;;;;;;;;;5082184;28;20031;-88
2022/10/26 01:49:04;;;;;;;0.00;0.00;;;;;;;;;;5101288;28;20286;-87
2022/10/26 01:51:31;;;;;;;0.00;0.00;;;;;;;;;;5092156;28;20380;-87
2022/10/26 01:53:57;;;;;;;0.00;0.00;;;;;;;;;;5090792;28;20024;-86
2022/10/26 01:56:26;;;;;;;3.10;1.00;;;;;;;;;;5092502;28;20034;-87
2022/10/26 01:59:01;;;;;;;0.00;0.00;;;;;;;;;;5092410;28;20400;-86
2022/10/26 02:01:46;;;;;;;0.38;0.32;;;;;;;;;;5091318;28;20049;-87
2022/10/26 02:04:35;;;;;;;0.00;0.00;;;;;;;;;;5089694;28;20028;-87
2022/10/26 02:07:03;;;;;;;2.00;1.55;;;;;;;;;;5090769;28;20372;-87
2022/10/26 02:09:38;;;;;;;0.88;0.88;;;;;;;;;;5091801;28;20028;-86
2022/10/26 02:12:28;;;;;;;1.40;1.40;;;;;;;;;;5090819;28;20031;-87
2022/10/26 02:15:06;;;;;;;0.00;0.00;;;;;;;;;;5041703;28;20039;-87
2022/10/26 02:17:42;;;;;;;0.00;0.00;;;;;;;;;;5088658;28;20017;-87
2022/10/26 02:20:11;;;;;;;1.48;1.45;;;;;;;;;;5092362;28;20032;-87
2022/10/26 02:22:46;;;;;;;0.00;0.00;;;;;;;;;;5091668;28;20024;-86
2022/10/26 02:25:17;;;;;;;0.45;0.43;;;;;;;;;;5090905;28;20070;-88
2022/10/26 02:27:47;;;;;;;0.38;0.20;;;;;;;;;;5071679;28;20034;-86
2022/10/26 02:30:13;;;;;;;0.32;0.17;;;;;;;;;;5099199;28;20044;-86
2022/10/26 02:32:42;;;;;;;0.10;0.10;;;;;;;;;;5102883;28;20066;-87
2022/10/26 02:35:08;;;;;;;0.38;0.30;;;;;;;;;;5090820;28;20024;-85
2022/10/26 02:37:36;;;;;;;0.00;0.00;;;;;;;;;;5088844;28;20028;-84
2022/10/26 02:40:04;;;;;;;1.70;1.60;;;;;;;;;;5090504;28;20050;-83
2022/10/26 02:42:31;;;;;;;2.92;0.88;;;;;;;;;;5092127;28;20034;-89
2022/10/26 02:45:00;;;;;;;0.13;0.13;;;;;;;;;;5089488;28;20032;-88
2022/10/26 02:47:26;;;;;;;0.00;0.00;;;;;;;;;;5086688;28;20028;-87
2022/10/26 02:49:54;;;;;;;0.00;0.00;;;;;;;;;;5087943;28;20028;-87
2022/10/26 02:52:23;;;;;;;0.65;0.65;;;;;;;;;;5092418;28;20069;-88
2022/10/26 02:54:59;;;;;;;0.00;0.00;;;;;;;;;;5084944;28;20024;-88
2022/10/26 02:57:25;;;;;;;0.05;0.05;;;;;;;;;;5089823;28;20101;-88
2022/10/26 02:59:55;;;;;;;1.80;1.70;;;;;;;;;;5090924;28;20028;-90
2022/10/26 03:02:22;;;;;;;0.00;0.00;;;;;;;;;;5093238;28;20032;-95
2022/10/26 03:04:55;;;;;;;1.38;1.27;;;;;;;;;;5064000;28;20024;-90
2022/10/26 03:07:25;;;;;;;0.00;0.00;;;;;;;;;;5080691;28;20519;-92
2022/10/26 03:09:51;;;;;;;0.00;0.00;;;;;;;;;;5089418;28;20115;-93
2022/10/26 03:12:18;;;;;;;0.10;0.10;;;;;;;;;;5090744;28;20027;-92
2022/10/26 03:14:44;;;;;;;0.65;0.65;;;;;;;;;;5088462;28;20059;-91
2022/10/26 03:17:10;;;;;;;0.00;0.00;;;;;;;;;;5108200;28;20062;-91
2022/10/26 03:19:37;;;;;;;0.10;0.10;;;;;;;;;;5086020;28;20020;-91
2022/10/26 03:22:03;;;;;;;0.00;0.00;;;;;;;;;;5080095;28;20040;-90
2022/10/26 03:24:29;;;;;;;0.00;0.00;;;;;;;;;;5074557;28;20028;-87
2022/10/26 03:26:56;;;;;;;0.00;0.00;;;;;;;;;;5080827;28;20028;-88
2022/10/26 03:29:25;;;;;;;0.90;0.60;;;;;;;;;;5097256;28;20032;-93
2022/10/26 03:31:54;;;;;;;0.00;0.00;;;;;;;;;;5088968;28;20058;-93
2022/10/26 03:34:20;;;;;;;0.00;0.00;;;;;;;;;;5080700;28;20387;-88
2022/10/26 03:36:47;;;;;;;0.43;0.25;;;;;;;;;;5079592;28;20040;-91
2022/10/26 03:39:13;;;;;;;0.10;0.10;;;;;;;;;;5086252;28;20115;-91
2022/10/26 03:41:39;;;;;;;12.63;5.10;;;;;;;;;;5084578;28;20032;-88
2022/10/26 03:44:06;;;;;;;0.30;0.30;;;;;;;;;;5081684;28;20032;-89
2022/10/26 03:46:32;;;;;;;1.00;1.00;;;;;;;;;;5074835;28;20233;-86
2022/10/26 03:48:58;;;;;;;0.63;0.63;;;;;;;;;;5063317;28;20471;-88
2022/10/26 03:51:25;;;;;;;0.00;0.00;;;;;;;;;;5075910;28;20080;-90
2022/10/26 03:53:51;;;;;;;0.32;0.32;;;;;;;;;;5104227;28;20116;-89
2022/10/26 03:56:17;;;;;;;0.20;0.20;;;;;;;;;;5083101;28;20462;-90
2022/10/26 03:58:44;;;;;;;0.00;0.00;;;;;;;;;;5074514;28;20066;-91
2022/10/26 04:01:10;;;;;;;2.88;2.72;;;;;;;;;;5095787;28;20032;-90
2022/10/26 04:03:36;;;;;;;1.50;1.42;;;;;;;;;;5084306;28;20088;-88
2022/10/26 04:06:03;;;;;;;1.60;1.50;;;;;;;;;;5079274;28;20064;-86
2022/10/26 04:08:32;;;;;;;0.10;0.10;;;;;;;;;;5070019;28;20491;-88
2022/10/26 04:10:58;;;;;;;0.00;0.00;;;;;;;;;;5068796;28;20118;-90
2022/10/26 04:13:24;;;;;;;0.25;0.25;;;;;;;;;;5068187;28;20069;-91
2022/10/26 04:15:51;;;;;;;0.00;0.00;;;;;;;;;;5084131;28;20678;-88
2022/10/26 04:18:17;;;;;;;0.52;0.52;;;;;;;;;;5084982;28;20302;-88
2022/10/26 04:20:44;;;;;;;3.65;3.45;;;;;;;;;;5085751;28;20053;-89
2022/10/26 04:23:19;;;;;;;0.00;0.00;;;;;;;;;;5085958;28;20032;-87
2022/10/26 04:26:01;;;;;;;0.43;0.43;;;;;;;;;;5087517;28;20166;-88
2022/10/26 04:28:27;;;;;;;0.40;0.40;;;;;;;;;;5085472;28;20024;-89
2022/10/26 04:30:57;;;;;;;0.00;0.00;;;;;;;;;;5064584;28;20036;-87
2022/10/26 04:33:26;;;;;;;0.00;0.00;;;;;;;;;;5068441;28;20024;-91
2022/10/26 04:35:52;;;;;;;0.38;0.38;;;;;;;;;;5074141;28;20066;-89
2022/10/26 04:38:19;;;;;;;0.63;0.63;;;;;;;;;;5080764;28;20043;-89
2022/10/26 04:40:45;;;;;;;0.00;0.00;;;;;;;;;;5088126;28;20320;-88
2022/10/26 04:43:11;;;;;;;0.00;0.00;;;;;;;;;;5076310;28;20103;-87
2022/10/26 04:45:37;;;;;;;0.00;0.00;;;;;;;;;;5097357;28;20032;-89
2022/10/26 04:48:08;;;;;;;0.00;0.00;;;;;;;;;;5075025;28;20020;-87
2022/10/26 04:50:35;;;;;;;0.00;0.00;;;;;;;;;;5076703;28;20089;-89
2022/10/26 04:53:01;;;;;;;0.10;0.10;;;;;;;;;;5088742;28;20039;-88
2022/10/26 04:55:28;;;;;;;0.00;0.00;;;;;;;;;;5091213;28;20020;-91
2022/10/26 04:57:57;;;;;;;0.20;0.20;;;;;;;;;;5087172;28;20112;-90
2022/10/26 05:00:23;;;;;;;0.60;0.60;;;;;;;;;;5087913;28;20099;-86
2022/10/26 05:02:50;;;;;;;2.83;0.70;;;;;;;;;;5080223;28;20444;-88
2022/10/26 05:05:16;;;;;;;0.52;0.52;;;;;;;;;;5086161;28;20107;-84
2022/10/26 05:07:42;;;;;;;0.20;0.20;;;;;;;;;;5088201;28;20345;-89
2022/10/26 05:10:09;;;;;;;0.08;0.08;;;;;;;;;;5091283;28;20024;-87
2022/10/26 05:12:36;;;;;;;0.00;0.00;;;;;;;;;;5085226;28;20028;-89
2022/10/26 05:15:02;;;;;;;0.00;0.00;;;;;;;;;;5091722;28;20032;-91
2022/10/26 05:17:28;;;;;;;0.75;0.65;;;;;;;;;;5089312;28;20032;-88
2022/10/26 05:19:57;;;;;;;0.10;0.10;;;;;;;;;;5069517;28;20027;-86
2022/10/26 05:22:23;;;;;;;0.00;0.00;;;;;;;;;;5087607;28;20028;-87
2022/10/26 05:24:50;;;;;;;0.10;0.10;;;;;;;;;;5084260;28;20036;-86
2022/10/26 05:27:17;;;;;;;0.00;0.00;;;;;;;;;;5064525;28;20028;-86
2022/10/26 05:29:43;;;;;;;0.00;0.00;;;;;;;;;;5079257;28;20024;-88
2022/10/26 05:32:09;;;;;;;0.00;0.00;;;;;;;;;;5082230;28;20469;-84
2022/10/26 05:34:35;;;;;;;0.00;0.00;;;;;;;;;;5085856;28;20027;-86
2022/10/26 05:37:02;;;;;;;0.00;0.00;;;;;;;;;;5105603;28;20025;-88
2022/10/26 05:39:28;;;;;;;1.75;0.80;;;;;;;;;;5091045;28;20099;-87
2022/10/26 05:41:55;;;;;;;0.00;0.00;;;;;;;;;;5087271;28;20085;-84
2022/10/26 05:44:21;;;;;;;0.00;0.00;;;;;;;;;;5081137;28;20032;-88
2022/10/26 05:46:47;;;;;;;0.00;0.00;;;;;;;;;;5064645;28;20028;-86
2022/10/26 05:49:14;;;;;;;0.00;0.00;;;;;;;;;;5085207;28;20036;-88
2022/10/26 05:51:41;;;;;;;0.00;0.00;;;;;;;;;;5083742;28;20040;-87
2022/10/26 05:54:07;;;;;;;0.00;0.00;;;;;;;;;;5082149;28;20073;-86
2022/10/26 05:56:37;;;;;;;0.00;0.00;;;;;;;;;;5081775;28;20065;-87
2022/10/26 05:59:04;;;;;;;0.15;0.10;;;;;;;;;;5085462;28;20070;-89
2022/10/26 06:01:45;;;;;;;0.00;0.00;;;;;;;;;;5082584;28;20064;-87
2022/10/26 06:04:14;;;;;;;0.00;0.00;;;;;;;;;;5084891;28;20032;-87
2022/10/26 06:06:45;;;;;;;0.65;0.63;;;;;;;;;;5081567;28;20029;-85
2022/10/26 06:09:11;;;;;;;0.75;0.75;;;;;;;;;;5084325;28;20016;-88
2022/10/26 06:11:38;;;;;;;1.67;1.58;;;;;;;;;;5083935;28;20032;-87
2022/10/26 06:14:06;;;;;;;7.75;5.57;;;;;;;;;;5084274;28;20020;-89
2022/10/26 06:16:40;;;;;;;5.80;5.32;;;;;;;;;;5059081;28;20201;-89
2022/10/26 06:19:14;;;;;;;9.02;8.23;;;;;;;;;;5079629;28;20028;-89
2022/10/26 06:21:40;;;;;;;4.32;1.30;;;;;;;;;;5062372;28;20032;-89
2022/10/26 06:24:09;;;;;;;3.30;2.55;;;;;;;;;;5078186;28;20036;-90
2022/10/26 06:26:48;;;;;;;0.10;0.10;;;;;;;;;;5089084;28;20027;-90
2022/10/26 06:29:16;;;;;;;1.13;1.13;;;;;;;;;;5096757;28;20063;-90
2022/10/26 06:31:43;;;;;;;2.97;2.67;;;;;;;;;;5073485;28;20024;-89
2022/10/26 06:34:11;;;;;;;0.47;0.47;;;;;;;;;;5054255;28;20105;-89
2022/10/26 06:36:38;;;;;;;3.08;2.33;;;;;;;;;;5079839;28;20268;-89
2022/10/26 06:39:10;;;;;;;2.20;2.10;;;;;;;;;;5070077;28;20091;-89
2022/10/26 06:41:36;;;;;;;0.10;0.10;;;;;;;;;;5077032;28;20035;-88
2022/10/26 06:44:04;;;;;;;0.00;0.00;;;;;;;;;;5088763;28;20142;-91
2022/10/26 06:46:39;;;;;;;0.00;0.00;;;;;;;;;;5084734;28;20024;-90
2022/10/26 06:49:28;;;;;;;1.45;0.85;;;;;;;;;;5089461;28;20024;-90
2022/10/26 06:52:03;;;;;;;0.00;0.00;;;;;;;;;;5087425;28;20055;-91
2022/10/26 06:54:47;;;;;;;14.75;13.75;;;;;;;;;;5089362;28;20520;-86
2022/10/26 06:57:14;;;;;;;0.00;0.00;;;;;;;;;;5083005;28;20020;-89
2022/10/26 06:59:52;;;;;;;5.63;2.20;;;;;;;;;;5067191;28;20481;-90
2022/10/26 07:02:18;;;;;;;0.00;0.00;;;;;;;;;;5087576;28;20024;-91
2022/10/26 07:04:45;;;;;;;0.43;0.43;;;;;;;;;;5082642;28;20070;-86
2022/10/26 07:07:14;;;;;;;1.50;0.75;;;;;;;;;;5081779;28;20111;-87
2022/10/26 07:09:40;;;;;;;6.30;3.78;;;;;;;;;;5080480;28;20082;-91
2022/10/26 07:12:07;;;;;;;0.55;0.55;;;;;;;;;;5078717;28;20028;-91
2022/10/26 07:14:33;;;;;;;1.17;0.85;;;;;;;;;;5080064;28;20047;-88
2022/10/26 07:16:59;;;;;;;0.10;0.10;;;;;;;;;;5079213;28;20070;-91
2022/10/26 07:19:26;;;;;;;0.00;0.00;;;;;;;;;;5082776;28;20059;-86
2022/10/26 07:21:55;;;;;;;0.00;0.00;;;;;;;;;;5093473;28;20058;-88
2022/10/26 07:24:22;;;;;;;0.68;0.68;;;;;;;;;;5071104;28;20480;-88
2022/10/26 07:26:49;;;;;;;2.65;2.45;;;;;;;;;;5066687;28;20047;-89
2022/10/26 07:29:16;;;;;;;0.00;0.00;;;;;;;;;;5065970;28;20066;-91
2022/10/26 07:31:43;;;;;;;0.00;0.00;;;;;;;;;;5095482;28;20087;-87
2022/10/26 07:34:10;;;;;;;0.00;0.00;;;;;;;;;;5087924;28;20024;-86
2022/10/26 07:36:39;;;;;;;1.77;1.38;;;;;;;;;;5083778;28;20096;-85
2022/10/26 07:39:16;;;;;;;0.00;0.00;;;;;;;;;;5103286;28;20028;-89
2022/10/26 07:41:46;;;;;;;3.58;3.30;;;;;;;;;;5072771;28;20032;-87
2022/10/26 07:44:12;;;;;;;0.10;0.10;;;;;;;;;;5077752;28;20044;-85
2022/10/26 07:46:45;;;;;;;0.00;0.00;;;;;;;;;;5082120;28;20098;-89
2022/10/26 07:49:11;;;;;;;0.00;0.00;;;;;;;;;;5096562;28;20040;-91
2022/10/26 07:51:38;;;;;;;6.45;2.95;;;;;;;;;;5069759;28;20066;-89
2022/10/26 07:54:07;;;;;;;0.00;0.00;;;;;;;;;;5081870;28;20028;-90
2022/10/26 07:56:36;;;;;;;0.30;0.30;;;;;;;;;;5082975;28;20044;-91
2022/10/26 07:59:03;;;;;;;0.10;0.10;;;;;;;;;;5091213;28;20016;-91
2022/10/26 08:01:29;;;;;;;0.00;0.00;;;;;;;;;;5078044;28;20463;-88
2022/10/26 08:04:01;;;;;;;0.00;0.00;;;;;;;;;;5099739;28;20040;-92
2022/10/26 08:06:27;;;;;;;0.00;0.00;;;;;;;;;;5073733;28;20105;-90
2022/10/26 08:09:09;;;;;;;0.38;0.38;;;;;;;;;;5078447;28;20961;-89
2022/10/26 08:11:48;;;;;;;3.63;2.80;;;;;;;;;;5079885;28;20027;-89
2022/10/26 08:17:15;;;;;;;2.63;2.42;;;;;;;;;;5057160;28;20053;-90
2022/10/26 08:19:54;;;;;;;8.05;2.10;;;;;;;;;;5057875;28;20105;-92
2022/10/26 08:22:24;;;;;;;0.68;0.68;;;;;;;;;;5056531;28;20101;-91
2022/10/26 08:24:53;;;;;;;0.15;0.15;;;;;;;;;;5063795;28;20036;-94
2022/10/26 08:27:19;;;;;;;0.00;0.00;;;;;;;;;;5081503;28;20366;-92
2022/10/26 08:29:48;;;;;;;1.20;1.20;;;;;;;;;;5069977;28;20021;-93
2022/10/26 08:32:17;;;;;;;0.52;0.52;;;;;;;;;;5076072;28;20086;-93
2022/10/26 08:34:44;;;;;;;0.10;0.10;;;;;;;;;;5078572;28;20047;-92
2022/10/26 08:37:11;;;;;;;1.75;0.70;;;;;;;;;;5074858;28;20042;-93
2022/10/26 08:39:53;;;;;;;0.05;0.05;;;;;;;;;;5077763;28;20039;-92
2022/10/26 08:42:27;;;;;;;0.00;0.00;;;;;;;;;;5096231;28;20032;-92
2022/10/26 08:45:30;;;;;;;0.08;0.08;;;;;;;;;;5095338;28;20032;-92
2022/10/26 08:48:26;;;;;;;0.63;0.57;;;;;;;;;;5074602;28;20316;-91
2022/10/26 08:52:02;;;;;;;0.38;0.38;;;;;;;;;;5078839;28;20139;-89
2022/10/26 08:54:41;;;;;;;2.63;2.50;;;;;;;;;;4999508;28;20091;-88
2022/10/26 08:57:22;;;;;;;2.83;2.50;;;;;;;;;;4994316;28;20137;-91
2022/10/26 09:00:00;;;;;;;0.00;0.00;;;;;;;;;;5058061;28;20039;-91
2022/10/26 09:02:27;;;;;;;0.00;0.00;;;;;;;;;;5073261;28;20101;-88
2022/10/26 09:04:54;;;;;;;0.00;0.00;;;;;;;;;;5105661;28;20071;-90
2022/10/26 09:08:01;;;;;;;;;;;;;;;;;;;;;
2022/10/26 09:10:52;;;;;;;1.08;1.08;;;;;;;;;;5080958;28;20038;-91
2022/10/26 09:13:23;;;;;;;0.00;0.00;;;;;;;;;;5085888;28;20637;-90
2022/10/26 09:16:15;;;;;;;0.00;0.00;;;;;;;;;;5081429;28;20020;-91
2022/10/26 09:18:46;;;;;;;0.88;0.88;;;;;;;;;;5087378;28;20619;-90
2022/10/26 09:21:41;;;;;;;0.00;0.00;;;;;;;;;;5092120;28;20020;-95
2022/10/26 09:24:10;;;;;;;0.00;0.00;;;;;;;;;;4978568;28;20065;-91
2022/10/26 09:26:41;;;;;;;0.17;0.17;;;;;;;;;;4966557;28;20172;-89
2022/10/26 09:29:18;;;;;;;0.22;0.22;;;;;;;;;;4970104;28;20164;-90
2022/10/26 09:31:49;;;;;;;3.22;1.73;;;;;;;;;;4986201;28;20652;-92
2022/10/26 09:34:25;;;;;;;0.45;0.45;;;;;;;;;;5013536;28;20568;-91
2022/10/26 09:36:54;;;;;;;0.00;0.00;;;;;;;;;;5075649;28;20032;-88
2022/10/26 09:39:38;;;;;;;1.05;0.52;;;;;;;;;;5071733;28;20224;-90
2022/10/26 09:42:16;;;;;;;0.00;0.00;;;;;;;;;;5089414;28;20450;-90
2022/10/26 09:44:53;;;;;;;0.00;0.00;;;;;;;;;;5071192;28;20027;-88
2022/10/26 09:47:30;;;;;;;0.00;0.00;;;;;;;;;;5082587;28;20028;-88
2022/10/26 09:50:41;;;;;;;0.00;0.00;;;;;;;;;;5081922;28;20416;-89
2022/10/26 09:53:28;;;;;;;1.95;1.08;;;;;;;;;;4995297;28;20054;-90
2022/10/26 09:56:17;;;;;;;0.32;0.32;;;;;;;;;;5014975;28;20200;-89
2022/10/26 09:58:45;;;;;;;0.85;0.85;;;;;;;;;;5045401;28;20563;-89
2022/10/26 10:18:02;;;;;;;;;;;;;;;;;;;;;
2022/10/26 10:33:25;;;;;;;1.15;1.08;;;;;;;;;;5061531;28;20036;-90
2022/10/26 10:36:39;;;;;;;;;;;;;;;;;;;;;
2022/10/26 10:39:31;;;;;;;0.00;0.00;;;;;;;;;;5074588;28;20023;-92
2022/10/26 10:42:13;;;;;;;0.00;0.00;;;;;;;;;;5062337;28;20032;-90
2022/10/26 10:44:42;;;;;;;0.00;0.00;;;;;;;;;;5062769;28;20110;-89
2022/10/26 10:58:05;;;;;;;0.00;0.00;;;;;;;;;;4977025;28;20050;-88
2022/10/26 11:03:53;;;;;;;0.00;0.00;;;;;;;;;;5054750;28;20083;-89
2022/10/26 11:16:24;;;;;;;;;;;;;;;;;;;;;
2022/10/26 11:39:22;;;;;;;0.00;0.00;;;;;;;;;;4961489;28;20129;-88
2022/10/26 11:42:16;;;;;;;;;;;;;;;;;;;;;
2022/10/26 11:45:29;;;;;;;0.00;0.00;;;;;;;;;;5100154;27;20335;-84
2022/10/26 11:48:14;;;;;;;0.00;0.00;;;;;;;;;;5062910;28;20033;-79
2022/10/26 11:50:45;;;;;;;0.38;0.38;;;;;;;;;;5087447;28;20454;-76
2022/10/26 11:53:16;;;;;;;0.52;0.52;;;;;;;;;;5068431;28;20024;-76
2022/10/26 11:55:47;;;;;;;0.10;0.10;;;;;;;;;;5060470;28;20033;-80
2022/10/26 11:58:14;;;;;;;0.65;0.65;;;;;;;;;;5063186;28;20032;-81
2022/10/26 12:01:00;;;;;;;0.00;0.00;;;;;;;;;;5058768;28;20041;-79
2022/10/26 12:03:28;;;;;;;0.00;0.00;;;;;;;;;;5073738;28;20386;-78
2022/10/26 12:05:55;;;;;;;0.95;0.95;;;;;;;;;;5065487;28;20021;-82
2022/10/26 12:20:50;;;;;;;0.10;0.10;;;;;;;;;;5168027;27;20334;-74
2022/10/26 12:23:17;;;;;;;3.60;1.80;;;;;;;;;;5143657;27;20037;-75
2022/10/26 12:25:43;;;;;;;2.55;1.25;;;;;;;;;;5134597;27;20090;-76
2022/10/26 12:28:28;;;;;;;1.77;1.67;;;;;;;;;;5138929;27;20019;-73
2022/10/26 12:31:14;;;;;;;0.00;0.00;;;;;;;;;;5148040;27;20127;-74
2022/10/26 12:33:50;;;;;;;0.35;0.35;;;;;;;;;;5151801;27;20390;-74
2022/10/26 12:36:35;;;;;;;0.00;0.00;;;;;;;;;;5142867;27;20026;-73
2022/10/26 12:39:01;;;;;;;2.38;1.40;;;;;;;;;;5152182;27;20102;-78
2022/10/26 12:41:28;;;;;;;0.00;0.00;;;;;;;;;;5162799;27;20023;-76
2022/10/26 12:43:56;;;;;;;0.00;0.00;;;;;;;;;;5126993;27;20034;-78
2022/10/26 12:46:25;;;;;;;2.08;2.00;;;;;;;;;;5132672;27;20023;-75
2022/10/26 12:48:55;;;;;;;0.63;0.63;;;;;;;;;;5115858;27;20466;-76
2022/10/26 12:51:21;;;;;;;0.00;0.00;;;;;;;;;;5141735;27;20079;-79
2022/10/26 12:54:08;;;;;;;0.00;0.00;;;;;;;;;;5138673;27;20114;-79
2022/10/26 12:56:44;;;;;;;0.00;0.00;;;;;;;;;;5133509;27;20034;-81
2022/10/26 12:59:13;;;;;;;0.00;0.00;;;;;;;;;;5135853;27;20049;-78
2022/10/26 13:01:48;;;;;;;0.00;0.00;;;;;;;;;;5141872;28;20031;-78
2022/10/26 13:04:17;;;;;;;0.00;0.00;;;;;;;;;;5139770;28;20040;-79
2022/10/26 13:06:43;;;;;;;0.00;0.00;;;;;;;;;;5132508;28;20035;-76
2022/10/26 13:09:20;;;;;;;0.10;0.10;;;;;;;;;;5125323;28;20065;-78
2022/10/26 13:11:48;;;;;;;0.00;0.00;;;;;;;;;;5127319;28;20076;-77
2022/10/26 13:14:22;;;;;;;0.60;0.60;;;;;;;;;;5129230;28;20076;-77
2022/10/26 13:16:49;;;;;;;0.00;0.00;;;;;;;;;;5126508;28;20031;-77
2022/10/26 13:19:23;;;;;;;0.03;0.03;;;;;;;;;;5128992;28;20075;-76
2022/10/26 13:21:50;;;;;;;0.00;0.00;;;;;;;;;;5114550;28;20030;-76
2022/10/26 13:24:16;;;;;;;0.00;0.00;;;;;;;;;;5113272;28;20053;-77
2022/10/26 13:27:01;;;;;;;0.00;0.00;;;;;;;;;;5111303;28;20024;-74
2022/10/26 13:29:30;;;;;;;0.00;0.00;;;;;;;;;;5100533;28;20024;-75
2022/10/26 13:31:56;;;;;;;1.80;1.20;;;;;;;;;;5114357;28;20047;-75
2022/10/26 13:34:24;;;;;;;0.00;0.00;;;;;;;;;;5113907;28;20494;-76
2022/10/26 13:36:59;;;;;;;0.00;0.00;;;;;;;;;;5112295;28;20027;-77
2022/10/26 13:39:29;;;;;;;0.00;0.00;;;;;;;;;;5103744;28;20021;-77
2022/10/26 13:41:57;;;;;;;0.00;0.00;;;;;;;;;;5111638;28;20028;-77
2022/10/26 13:44:36;;;;;;;1.48;1.42;;;;;;;;;;5112667;28;20023;-76
2022/10/26 13:47:04;;;;;;;0.00;0.00;;;;;;;;;;5105790;28;20382;-77
2022/10/26 13:49:34;;;;;;;1.35;1.27;;;;;;;;;;5093738;28;20035;-77
2022/10/26 13:52:02;;;;;;;0.00;0.00;;;;;;;;;;5110596;28;20106;-76
2022/10/26 13:54:28;;;;;;;0.00;0.00;;;;;;;;;;5114138;28;20103;-77
2022/10/26 13:56:54;;;;;;;0.00;0.00;;;;;;;;;;5093448;28;20026;-76
2022/10/26 13:59:21;;;;;;;0.70;0.70;;;;;;;;;;5113635;28;20070;-77
2022/10/26 14:02:04;;;;;;;0.15;0.15;;;;;;;;;;5093157;28;20055;-77
2022/10/26 14:04:31;;;;;;;0.00;0.00;;;;;;;;;;5089918;28;20293;-79
2022/10/26 14:06:57;;;;;;;0.00;0.00;;;;;;;;;;5110778;28;20047;-77
2022/10/26 14:09:24;;;;;;;0.00;0.00;;;;;;;;;;5096089;28;20028;-77
2022/10/26 14:11:54;;;;;;;29.40;27.75;;;;;;;;;;5091001;28;20030;-77
2022/10/26 14:14:24;;;;;;;5.78;5.35;;;;;;;;;;5113392;28;20058;-77
2022/10/26 14:16:52;;;;;;;0.00;0.00;;;;;;;;;;5112162;28;20027;-77
2022/10/26 14:19:22;;;;;;;0.00;0.00;;;;;;;;;;5096494;28;20133;-79
2022/10/26 14:21:49;;;;;;;0.00;0.00;;;;;;;;;;5115346;28;20103;-79
2022/10/26 14:24:22;;;;;;;0.00;0.00;;;;;;;;;;5097003;28;20024;-78
2022/10/26 14:26:49;;;;;;;0.43;0.43;;;;;;;;;;5096295;28;20076;-77
2022/10/26 14:29:17;;;;;;;4.80;4.57;;;;;;;;;;5113546;28;20042;-77
2022/10/26 14:31:43;;;;;;;5.93;5.47;;;;;;;;;;5094279;28;20152;-77
2022/10/26 14:34:11;;;;;;;7.20;6.88;;;;;;;;;;5093276;28;20024;-77
2022/10/26 14:36:37;;;;;;;0.40;0.40;;;;;;;;;;5115174;28;20023;-78
2022/10/26 14:39:20;;;;;;;0.00;0.00;;;;;;;;;;5115402;28;20032;-77
2022/10/26 14:41:46;;;;;;;0.00;0.00;;;;;;;;;;5114254;28;20491;-78
2022/10/26 14:44:18;;;;;;;0.10;0.10;;;;;;;;;;5114704;28;20027;-77
2022/10/26 14:46:44;;;;;;;1.60;1.52;;;;;;;;;;5121939;28;20058;-76
2022/10/26 14:49:31;;;;;;;0.20;0.20;;;;;;;;;;5119548;28;20475;-76
2022/10/26 14:52:04;;;;;;;0.00;0.00;;;;;;;;;;5103322;28;20020;-78
2022/10/26 14:54:32;;;;;;;0.00;0.00;;;;;;;;;;5113419;28;20024;-80
2022/10/26 14:57:07;;;;;;;0.00;0.00;;;;;;;;;;5113670;28;20432;-79
2022/10/26 14:59:33;;;;;;;0.00;0.00;;;;;;;;;;5095812;28;20027;-78
2022/10/26 15:02:09;;;;;;;0.93;0.93;;;;;;;;;;5115294;28;20024;-77
2022/10/26 15:04:40;;;;;;;0.43;0.30;;;;;;;;;;5116092;28;20130;-78
2022/10/26 15:07:12;;;;;;;0.00;0.00;;;;;;;;;;5093380;28;20384;-80
2022/10/26 15:09:41;;;;;;;0.00;0.00;;;;;;;;;;5112331;28;20114;-77
2022/10/26 15:12:17;;;;;;;0.00;0.00;;;;;;;;;;5091120;28;20050;-78
2022/10/26 15:14:44;;;;;;;0.65;0.65;;;;;;;;;;5120057;28;20467;-78
2022/10/26 15:17:18;;;;;;;1.25;1.25;;;;;;;;;;5115623;28;20051;-78
2022/10/26 15:19:45;;;;;;;0.70;0.70;;;;;;;;;;5117853;28;20050;-78
2022/10/26 15:22:21;;;;;;;0.00;0.00;;;;;;;;;;5100429;28;20028;-79
2022/10/26 15:24:50;;;;;;;0.00;0.00;;;;;;;;;;5118040;28;20023;-78
2022/10/26 15:27:16;;;;;;;0.85;0.75;;;;;;;;;;5120624;28;20055;-77
2022/10/26 15:29:44;;;;;;;2.13;1.95;;;;;;;;;;5129899;28;20087;-79
2022/10/26 15:32:23;;;;;;;0.00;0.00;;;;;;;;;;5099881;28;20028;-79
2022/10/26 15:35:05;;;;;;;0.00;0.00;;;;;;;;;;5099605;28;20499;-79
2022/10/26 15:37:31;;;;;;;0.00;0.00;;;;;;;;;;5082747;28;20042;-78
2022/10/26 15:39:59;;;;;;;0.28;0.28;;;;;;;;;;5113143;28;20050;-77
2022/10/26 15:42:26;;;;;;;0.38;0.38;;;;;;;;;;5100326;28;20028;-79
2022/10/26 15:44:53;;;;;;;3.67;1.67;;;;;;;;;;5113582;28;20054;-79
2022/10/26 15:47:19;;;;;;;0.00;0.00;;;;;;;;;;5114176;28;20027;-77
2022/10/26 15:49:46;;;;;;;0.55;0.55;;;;;;;;;;5079549;28;20098;-77
2022/10/26 15:52:13;;;;;;;0.00;0.00;;;;;;;;;;5099472;28;20041;-78
2022/10/26 15:54:39;;;;;;;0.00;0.00;;;;;;;;;;5111347;28;20034;-79
2022/10/26 15:57:08;;;;;;;2.13;2.05;;;;;;;;;;5113177;28;20020;-79
2022/10/26 15:59:34;;;;;;;0.00;0.00;;;;;;;;;;5109921;28;20437;-80
2022/10/26 16:02:00;;;;;;;0.47;0.47;;;;;;;;;;5108055;28;20065;-78
2022/10/26 16:04:26;;;;;;;0.00;0.00;;;;;;;;;;5116230;28;20427;-77
2022/10/26 16:06:55;;;;;;;0.00;0.00;;;;;;;;;;5115905;28;20053;-78
2022/10/26 16:09:21;;;;;;;0.00;0.00;;;;;;;;;;5115869;28;20019;-77
2022/10/26 16:11:48;;;;;;;0.00;0.00;;;;;;;;;;5108108;28;20040;-79
2022/10/26 16:14:14;;;;;;;0.00;0.00;;;;;;;;;;5103063;28;20027;-78
2022/10/26 16:16:40;;;;;;;0.00;0.00;;;;;;;;;;5109996;28;20020;-79
2022/10/26 16:19:10;;;;;;;2.53;2.33;;;;;;;;;;5087405;28;20036;-77
2022/10/26 16:21:36;;;;;;;0.00;0.00;;;;;;;;;;5103523;28;20103;-79
2022/10/26 16:24:02;;;;;;;0.00;0.00;;;;;;;;;;5107851;28;20111;-79
2022/10/26 16:26:29;;;;;;;0.20;0.20;;;;;;;;;;5082437;28;20028;-79
2022/10/26 16:28:55;;;;;;;0.20;0.20;;;;;;;;;;5089041;28;20039;-79
2022/10/26 16:31:22;;;;;;;0.43;0.15;;;;;;;;;;5088233;28;20024;-79
2022/10/26 16:33:48;;;;;;;3.05;1.33;;;;;;;;;;5084519;28;20111;-80
2022/10/26 16:36:15;;;;;;;0.77;0.77;;;;;;;;;;5101878;28;20475;-79
2022/10/26 16:38:41;;;;;;;0.10;0.10;;;;;;;;;;5103436;28;20036;-78
2022/10/26 16:41:09;;;;;;;0.82;0.77;;;;;;;;;;5101925;28;20070;-78